Airfield :
LOGIN :

Register | Disclaimer

   EN    FR    IT 

 










Legend :    VFR   Marginal VFR   IFR   Intensive IFR   Very Intensive IFR
Visi :
Ceiling :
>= 8 km
>= 3000ft
5 to 8 km
1000 to 3000 ft
1500m to 5 km
500 to 1000 ft
800 to 1500m
200 to 500 ft
< 800m
< 200 ft
Symbols :   Thunderstorms  Fog  Heavy snow  Heavy precipitations  Wind > 20 kt
SIGMETs :     Misc.  Thunderstorms  Icing  Turbulence  Mountain Waves  Volcanic Ashes







- Airport Elevation : 463 ft
- IATA code : SZY
- AIRPORT CLOSED.


EPSY - Szczytno

CURRENT METAR :
  • 181600Z 34003KT 260V060 CAVOK 23/17 Q1019

EXPIRED METARs :
  • 181530Z VRB02KT CAVOK 23/17 Q1019
  • 181500Z 23003KT 190V270 CAVOK 22/18 Q1019
  • 181430Z VRB02KT CAVOK 21/19 Q1019
  • 181400Z VRB01KT 9999 FEW040CB 20/19 Q1019
  • 181330Z 26006KT 220V290 9999 FEW040CB 20/19 Q1019 RETS

TAF TAF EPSY
Valid from the 18 at 15:00 until the 19 at 00:00 UTC


181430Z 1815/1824 34006KT CAVOK
PROB30 1815/1820 SHRA BKN035CB
No reported NOTAMs for that airfield.
3 SIGMETs reported for the Warszawa FIR (EPWW) :
 
Embedded thunderstorms
EPWW SIGMET 5 VALID 181520/181730 EPWA
EPWW WARSAW FIR EMBD TS OBS WI N5400 E02320 - N5130 E02010 - N4950 E02000 - N5010 E01800 - N5240 E01840 - N5420 E02040 - N5400 E02320 TOP FL380 MOV NE NC=
SIGMET 3  cancelation
EPWW SIGMET 4 VALID 181510/181730 EPWA
EPWW WARSAW FIR CNL SIGMET 3 181430/181730=
SIGMET 3  CANCELED :
Embedded thunderstorms
EPWW SIGMET 3 VALID 181430/181730 EPWA
EPWW WARSAW FIR EMBD TS OBS NE OF LINE N5420 E02140 - N5200 E02020 - N5200 E02320 TOP FL380 MOV NE NC=



MET'MAP, your aeronautical weather chart ! - Copyright ORBIFLY December 2007 - Disclaimer

ORBIFLY MET'MAP TEAM :

Programming & Development : Alexandra Zaïnal
Concept & Development : Baudouin d'Aumeries
Co-Development & Prog : Marc-Olivier Méhu
Technical & hardware support : Manuel Goepfert

Contact : metmap@orbifly.com




SOURCES & CREDITS :

   NOAA